createdAt,value
2022-09-04T00:01:43.160Z,16.77
2022-09-04T00:04:31.372Z,16.20
2022-09-04T00:07:21.691Z,18.27
2022-09-04T00:10:11.450Z,17.67
2022-09-04T00:12:49.556Z,17.00
2022-09-04T00:15:25.759Z,21.40
2022-09-04T00:18:03.427Z,17.13
2022-09-04T00:20:43.773Z,21.23
2022-09-04T00:23:25.389Z,15.90
2022-09-04T00:26:05.894Z,15.40
2022-09-04T00:28:43.217Z,15.40
2022-09-04T00:31:29.137Z,17.90
2022-09-04T00:34:15.807Z,19.13
2022-09-04T00:36:54.577Z,17.90
2022-09-04T00:39:39.499Z,18.53
2022-09-04T00:42:35.694Z,15.50
2022-09-04T00:45:31.833Z,22.73
2022-09-04T00:48:22.497Z,18.30
2022-09-04T00:51:20.684Z,20.10
2022-09-04T00:54:38.522Z,14.50
2022-09-04T00:57:57.857Z,17.37
2022-09-04T01:00:30.757Z,25.93
2022-09-04T01:03:37.662Z,17.53
2022-09-04T01:06:24.513Z,17.60
2022-09-04T01:09:36.603Z,17.70
2022-09-04T01:12:22.111Z,18.63
2022-09-04T01:15:14.455Z,16.53
2022-09-04T01:17:59.683Z,21.73
2022-09-04T01:20:52.628Z,17.00
2022-09-04T01:24:02.221Z,27.27
2022-09-04T01:26:49.566Z,23.70
2022-09-04T01:29:39.929Z,20.77
2022-09-04T01:32:27.174Z,22.27
2022-09-04T01:35:13.548Z,23.93
2022-09-04T01:37:54.973Z,47.17
2022-09-04T01:40:45.882Z,46.63
2022-09-04T01:43:21.383Z,27.67
2022-09-04T01:46:36.418Z,28.17
2022-09-04T01:49:20.766Z,21.93
2022-09-04T01:52:02.927Z,28.80
2022-09-04T01:54:57.067Z,29.43
2022-09-04T01:57:47.042Z,44.50
2022-09-04T02:00:23.238Z,41.13
2022-09-04T02:03:04.136Z,17.30
2022-09-04T02:05:54.680Z,18.83
2022-09-04T02:08:57.591Z,16.90
2022-09-04T02:11:32.154Z,15.73
2022-09-04T02:14:24.379Z,15.80
2022-09-04T02:17:12.462Z,12.40
2022-09-04T02:20:08.504Z,14.07
2022-09-04T02:22:51.755Z,20.20
2022-09-04T02:25:32.457Z,20.33
2022-09-04T02:28:25.889Z,83.20
2022-09-04T02:31:08.054Z,46.63
2022-09-04T02:33:51.237Z,33.67
2022-09-04T02:36:29.577Z,31.87
2022-09-04T02:39:16.521Z,30.73
2022-09-04T02:41:58.814Z,28.20
2022-09-04T02:44:43.424Z,38.47
2022-09-04T02:47:25.970Z,26.57
2022-09-04T02:50:10.318Z,21.10
2022-09-04T02:53:03.162Z,16.17
2022-09-04T02:55:53.782Z,11.27
2022-09-04T02:58:57.726Z,12.33
2022-09-04T03:01:39.012Z,10.23
2022-09-04T03:04:21.036Z,12.10
2022-09-04T03:07:02.392Z,9.10
2022-09-04T03:09:42.322Z,13.90
2022-09-04T03:12:34.942Z,15.70
2022-09-04T03:15:16.672Z,27.47
2022-09-04T03:17:58.956Z,94.53
2022-09-04T03:20:31.474Z,126.30
2022-09-04T03:23:17.834Z,120.17
2022-09-04T03:26:19.230Z,133.13
2022-09-04T03:29:15.085Z,80.33
2022-09-04T03:32:01.212Z,308.77
2022-09-04T03:34:45.210Z,196.63
2022-09-04T03:37:44.464Z,133.97
2022-09-04T03:40:38.376Z,129.27
2022-09-04T03:43:42.542Z,241.47
2022-09-04T03:46:29.693Z,249.93
2022-09-04T03:49:17.582Z,98.17
2022-09-04T03:52:07.453Z,163.63
2022-09-04T03:55:08.655Z,50.43
2022-09-04T03:58:14.885Z,79.70
2022-09-04T04:01:00.734Z,65.77
2022-09-04T04:04:03.277Z,89.67
2022-09-04T04:06:42.443Z,18.50
2022-09-04T04:09:37.296Z,13.00
2022-09-04T04:12:43.731Z,13.57
2022-09-04T04:15:48.600Z,36.27
2022-09-04T04:18:41.793Z,20.30
2022-09-04T04:21:27.719Z,53.67
2022-09-04T04:24:39.040Z,17.83
2022-09-04T04:27:32.444Z,23.57
2022-09-04T04:30:14.490Z,17.00
2022-09-04T04:33:13.277Z,11.80
2022-09-04T04:35:57.462Z,15.53
2022-09-04T04:38:48.152Z,16.40
2022-09-04T04:41:59.469Z,15.20
2022-09-04T04:45:00.478Z,9.70
2022-09-04T04:48:18.288Z,10.50
2022-09-04T04:51:09.493Z,7.33
2022-09-04T04:53:52.264Z,15.93
2022-09-04T04:56:32.229Z,9.57
2022-09-04T04:59:20.906Z,10.53
2022-09-04T05:02:07.968Z,13.57
2022-09-04T05:04:53.057Z,12.97
2022-09-04T05:07:38.563Z,14.10
2022-09-04T05:10:21.200Z,13.20
2022-09-04T05:13:04.928Z,12.17
2022-09-04T05:16:07.380Z,15.63
2022-09-04T05:18:45.401Z,88.93
2022-09-04T05:21:26.167Z,103.70
2022-09-04T05:24:08.136Z,76.77
2022-09-04T05:26:49.952Z,59.77
2022-09-04T05:29:32.367Z,61.40
2022-09-04T05:32:28.386Z,57.67
2022-09-04T05:35:18.555Z,52.97
2022-09-04T05:38:01.860Z,69.97
2022-09-04T05:40:55.497Z,24.20
2022-09-04T05:43:45.413Z,32.73
2022-09-04T05:46:35.242Z,46.70
2022-09-04T05:49:21.434Z,24.70
2022-09-04T05:52:29.904Z,21.97
2022-09-04T05:55:21.290Z,18.00
2022-09-04T05:58:17.322Z,17.97
2022-09-04T06:01:04.295Z,18.27
2022-09-04T06:04:10.008Z,16.37
2022-09-04T06:06:50.785Z,12.73
2022-09-04T06:09:42.237Z,9.70
2022-09-04T06:12:39.410Z,18.10
2022-09-04T06:15:35.468Z,14.40
2022-09-04T06:18:43.193Z,16.90
2022-09-04T06:21:45.104Z,17.03
2022-09-04T06:24:54.457Z,29.67
2022-09-04T06:27:49.078Z,11.57
2022-09-04T06:30:20.636Z,8.07
2022-09-04T06:33:22.415Z,9.03
2022-09-04T06:36:19.294Z,9.10
2022-09-04T06:39:19.064Z,8.07
2022-09-04T06:42:19.536Z,8.80
2022-09-04T06:45:09.848Z,7.60
2022-09-04T06:48:03.723Z,6.97
2022-09-04T06:50:48.643Z,11.93
2022-09-04T06:53:42.633Z,7.90
2022-09-04T06:56:33.594Z,11.43
2022-09-04T06:59:33.899Z,6.97
2022-09-04T07:02:26.052Z,5.80
2022-09-04T07:05:20.665Z,6.47
2022-09-04T07:08:06.753Z,7.43
2022-09-04T07:10:44.188Z,8.27
2022-09-04T07:13:46.037Z,6.70
2022-09-04T07:16:40.489Z,7.17
2022-09-04T07:19:51.332Z,7.23
2022-09-04T07:23:02.982Z,6.30
2022-09-04T07:25:48.497Z,7.57
2022-09-04T07:28:47.835Z,6.97
2022-09-04T07:31:29.552Z,6.00
2022-09-04T07:34:17.245Z,7.87
2022-09-04T07:36:59.466Z,7.03
2022-09-04T07:39:41.587Z,8.87
2022-09-04T07:42:19.876Z,9.00
2022-09-04T07:44:59.802Z,6.33
2022-09-04T07:47:42.427Z,5.37
2022-09-04T07:50:19.950Z,6.10
2022-09-04T07:53:14.016Z,6.40
2022-09-04T07:55:49.429Z,4.80
2022-09-04T07:58:58.586Z,4.70
2022-09-04T08:01:50.992Z,10.73
2022-09-04T08:04:46.883Z,6.13
2022-09-04T08:07:25.844Z,6.63
2022-09-04T08:10:22.787Z,5.33
2022-09-04T08:13:15.144Z,4.90
2022-09-04T08:15:51.475Z,5.83
2022-09-04T08:18:53.797Z,5.17
2022-09-04T08:21:32.059Z,6.70
2022-09-04T08:24:53.307Z,5.00
2022-09-04T08:27:47.872Z,4.87
2022-09-04T08:30:23.848Z,6.63
2022-09-04T08:33:39.874Z,5.27
2022-09-04T08:36:24.995Z,5.70
2022-09-04T08:39:12.393Z,6.73
2022-09-04T08:42:27.541Z,5.53
2022-09-04T08:45:49.022Z,5.53
2022-09-04T08:49:03.684Z,4.67
2022-09-04T08:52:20.946Z,6.20
2022-09-04T08:55:22.488Z,4.53
2022-09-04T08:58:37.709Z,5.20
2022-09-04T09:01:47.743Z,5.17
2022-09-04T09:05:02.025Z,4.57
2022-09-04T09:08:07.390Z,5.47
2022-09-04T09:11:14.672Z,6.33
2022-09-04T09:14:34.599Z,5.87
2022-09-04T09:17:17.070Z,5.83
2022-09-04T09:20:09.817Z,5.07
2022-09-04T09:23:16.075Z,4.30
2022-09-04T09:26:08.807Z,5.80
2022-09-04T09:29:25.512Z,4.47
2022-09-04T09:32:40.357Z,5.00
2022-09-04T09:36:03.178Z,4.13
2022-09-04T09:39:26.772Z,5.23
2022-09-04T09:42:59.197Z,3.60
2022-09-04T09:46:20.060Z,7.00
2022-09-04T09:50:00.191Z,4.10
2022-09-04T09:53:22.075Z,4.17
2022-09-04T09:56:28.643Z,5.63
2022-09-04T09:59:47.496Z,4.60
2022-09-04T10:03:17.163Z,6.10
2022-09-04T10:06:32.333Z,3.63
2022-09-04T10:09:58.434Z,4.73
2022-09-04T10:13:17.675Z,4.10
2022-09-04T10:16:36.540Z,4.07
2022-09-04T10:19:47.185Z,4.20
2022-09-04T10:23:04.902Z,5.27
2022-09-04T10:26:35.911Z,4.67
2022-09-04T10:29:51.306Z,6.53
2022-09-04T10:32:59.097Z,3.93
2022-09-04T10:35:40.359Z,3.93
2022-09-04T10:38:38.389Z,6.30
2022-09-04T10:41:43.329Z,3.73
2022-09-04T10:44:52.877Z,3.67
2022-09-04T10:47:52.310Z,3.50
2022-09-04T10:50:58.977Z,3.80
2022-09-04T10:54:07.944Z,4.27
2022-09-04T10:56:54.937Z,5.20
2022-09-04T10:59:59.282Z,4.87
2022-09-04T11:03:24.382Z,4.40
2022-09-04T11:06:49.384Z,3.77
2022-09-04T11:09:49.523Z,5.50
2022-09-04T11:13:09.160Z,6.40
2022-09-04T11:16:11.681Z,5.73
2022-09-04T11:19:12.989Z,4.60
2022-09-04T11:22:23.429Z,4.70
2022-09-04T11:25:52.544Z,3.87
2022-09-04T11:29:12.464Z,3.33
2022-09-04T11:32:18.840Z,6.13
2022-09-04T11:35:37.333Z,3.50
2022-09-04T11:38:20.136Z,4.60
2022-09-04T11:41:43.319Z,3.87
2022-09-04T11:44:46.292Z,4.70
2022-09-04T11:47:59.372Z,3.60
2022-09-04T11:51:01.636Z,3.40
2022-09-04T11:54:00.514Z,3.60
2022-09-04T11:56:56.547Z,3.87
2022-09-04T11:59:49.778Z,3.50
2022-09-04T12:02:43.440Z,4.63
2022-09-04T12:05:39.707Z,3.67
2022-09-04T12:08:35.860Z,3.73
2022-09-04T12:11:48.030Z,5.73
2022-09-04T12:14:49.459Z,4.50
2022-09-04T12:18:25.741Z,3.33
2022-09-04T12:21:53.102Z,4.00
2022-09-04T12:25:07.943Z,3.97
2022-09-04T12:28:26.858Z,4.50
2022-09-04T12:31:23.893Z,3.60
2022-09-04T12:34:16.378Z,4.17
2022-09-04T12:37:42.353Z,3.40
2022-09-04T12:40:34.591Z,5.97
2022-09-04T12:43:24.257Z,4.83
2022-09-04T12:46:14.832Z,4.17
2022-09-04T12:49:04.269Z,3.00
2022-09-04T12:51:49.404Z,4.23
2022-09-04T12:54:38.581Z,6.97
2022-09-04T12:57:34.534Z,3.80
2022-09-04T13:00:12.215Z,3.47
2022-09-04T13:03:10.420Z,4.77
2022-09-04T13:06:09.263Z,4.50
2022-09-04T13:09:02.593Z,7.17
2022-09-04T13:11:51.903Z,4.17
2022-09-04T13:14:57.623Z,3.83
2022-09-04T13:17:39.631Z,7.57
2022-09-04T13:20:24.036Z,3.50
2022-09-04T13:23:15.349Z,3.57
2022-09-04T13:26:09.171Z,6.93
2022-09-04T13:28:58.080Z,4.40
2022-09-04T13:31:57.081Z,3.23
2022-09-04T13:34:38.298Z,4.53
2022-09-04T13:37:26.047Z,3.63
2022-09-04T13:40:29.805Z,3.70
2022-09-04T13:43:31.068Z,3.20
2022-09-04T13:46:08.289Z,4.17
2022-09-04T13:48:47.524Z,6.40
2022-09-04T13:51:29.849Z,4.13
2022-09-04T13:54:13.309Z,3.57
2022-09-04T13:56:54.214Z,3.30
2022-09-04T13:59:26.356Z,5.37
2022-09-04T14:02:04.838Z,4.47
2022-09-04T14:04:44.095Z,4.70
2022-09-04T14:07:24.899Z,3.60
2022-09-04T14:10:04.236Z,4.10
2022-09-04T14:13:01.843Z,3.80
2022-09-04T14:16:03.921Z,6.70
2022-09-04T14:19:15.512Z,4.53
2022-09-04T14:22:15.037Z,3.53
2022-09-04T14:24:59.734Z,3.70
2022-09-04T14:27:39.843Z,3.20
2022-09-04T14:30:16.214Z,3.87
2022-09-04T14:33:08.359Z,4.80
2022-09-04T14:36:06.178Z,3.83
2022-09-04T14:39:06.619Z,6.93
2022-09-04T14:42:13.429Z,4.20
2022-09-04T14:45:09.582Z,3.10
2022-09-04T14:47:47.483Z,3.73
2022-09-04T14:50:20.670Z,5.00
2022-09-04T14:52:54.606Z,4.10
2022-09-04T14:55:29.673Z,4.67
2022-09-04T14:58:18.059Z,7.17
2022-09-04T15:01:03.950Z,4.70
2022-09-04T15:03:42.867Z,4.93
2022-09-04T15:06:22.703Z,4.53
2022-09-04T15:08:57.191Z,4.17
2022-09-04T15:11:34.920Z,3.13
2022-09-04T15:14:24.452Z,4.37
2022-09-04T15:17:00.837Z,3.67
2022-09-04T15:19:47.884Z,3.60
2022-09-04T15:22:29.370Z,4.73
2022-09-04T15:25:08.960Z,4.37
2022-09-04T15:27:54.649Z,4.23
2022-09-04T15:30:39.728Z,4.90
2022-09-04T15:33:15.348Z,3.63
2022-09-04T15:35:45.703Z,4.13
2022-09-04T15:38:21.127Z,4.30
2022-09-04T15:41:20.462Z,5.40
2022-09-04T15:43:55.713Z,4.10
2022-09-04T15:46:46.105Z,3.70
2022-09-04T15:49:41.120Z,4.57
2022-09-04T15:52:27.178Z,4.90
2022-09-04T15:55:14.171Z,3.07
2022-09-04T15:58:08.562Z,3.83
2022-09-04T16:00:44.017Z,4.10
2022-09-04T16:03:24.123Z,4.30
2022-09-04T16:06:02.976Z,3.97
2022-09-04T16:08:45.122Z,3.50
2022-09-04T16:11:27.516Z,3.10
2022-09-04T16:14:02.706Z,4.37
2022-09-04T16:16:43.565Z,6.37
2022-09-04T16:19:32.411Z,7.43
2022-09-04T16:22:19.006Z,5.50
2022-09-04T16:24:54.266Z,5.97
2022-09-04T16:27:31.103Z,4.57
2022-09-04T16:30:05.706Z,5.27
2022-09-04T16:32:38.950Z,5.37
2022-09-04T16:35:23.625Z,4.67
2022-09-04T16:38:04.702Z,4.20
2022-09-04T16:40:43.379Z,5.23
2022-09-04T16:43:28.665Z,4.13
2022-09-04T16:46:12.304Z,3.70
2022-09-04T16:48:54.669Z,4.63
2022-09-04T16:51:40.749Z,8.03
2022-09-04T16:54:20.446Z,4.37
2022-09-04T16:57:12.299Z,7.97
2022-09-04T16:59:47.888Z,3.33
2022-09-04T17:02:35.722Z,4.47
2022-09-04T17:05:27.861Z,4.90
2022-09-04T17:08:13.765Z,3.67
2022-09-04T17:10:50.936Z,3.70
2022-09-04T17:13:29.191Z,10.47
2022-09-04T17:16:07.457Z,9.07
2022-09-04T17:18:43.675Z,5.73
2022-09-04T17:29:01.668Z,4.23
2022-09-04T17:29:07.712Z,3.43
2022-09-04T17:29:08.974Z,3.63
2022-09-04T17:30:48.472Z,5.37
2022-09-04T17:37:31.557Z,9.43
2022-09-04T17:40:44.216Z,7.03
2022-09-04T17:40:48.304Z,6.80
2022-09-04T17:42:31.041Z,8.30
2022-09-04T17:45:16.523Z,4.30
2022-09-04T17:47:46.582Z,6.03
2022-09-04T17:50:22.696Z,6.60
2022-09-04T17:53:03.242Z,5.50
2022-09-04T17:55:48.199Z,5.30
2022-09-04T17:58:37.871Z,6.50
2022-09-04T18:01:15.965Z,6.13
2022-09-04T18:04:21.582Z,8.33
2022-09-04T18:07:33.565Z,5.27
2022-09-04T18:10:17.338Z,5.50
2022-09-04T18:12:54.851Z,7.90
2022-09-04T18:15:37.775Z,5.20
2022-09-04T18:18:24.670Z,6.93
2022-09-04T18:21:03.784Z,6.37
2022-09-04T18:23:52.073Z,4.73
2022-09-04T18:26:40.624Z,7.50
2022-09-04T18:35:02.965Z,6.63
2022-09-04T18:37:16.840Z,5.10
2022-09-04T18:37:23.986Z,8.33
2022-09-04T18:39:08.872Z,6.30
2022-09-04T18:50:23.895Z,11.87
2022-09-04T18:50:28.731Z,5.53
2022-09-04T18:50:50.179Z,8.13
2022-09-04T18:51:19.368Z,9.53
2022-09-04T18:53:57.685Z,7.10
2022-09-04T18:56:33.249Z,5.40
2022-09-04T18:59:14.212Z,5.23
2022-09-04T19:01:49.282Z,7.70
2022-09-04T19:04:49.116Z,6.50
2022-09-04T19:07:32.846Z,9.73
2022-09-04T19:10:33.028Z,10.67
2022-09-04T19:13:14.241Z,6.23
2022-09-04T19:16:02.720Z,9.83
2022-09-04T19:18:48.732Z,7.57
2022-09-04T19:21:43.659Z,7.90
2022-09-04T19:24:34.649Z,8.67
2022-09-04T19:27:34.308Z,7.77
2022-09-04T19:30:19.740Z,6.00
2022-09-04T19:33:13.979Z,10.37
2022-09-04T19:35:53.791Z,12.23
2022-09-04T19:42:52.302Z,11.03
2022-09-04T19:46:05.052Z,7.23
2022-09-04T19:46:18.622Z,6.50
2022-09-04T19:47:37.169Z,13.57
2022-09-04T19:53:18.246Z,7.27
2022-09-04T19:53:40.388Z,6.33
2022-09-04T19:56:31.066Z,12.03
2022-09-04T19:59:12.894Z,8.43
2022-09-04T20:01:51.062Z,8.53
2022-09-04T20:04:37.236Z,8.23
2022-09-04T20:07:23.835Z,11.23
2022-09-04T20:10:01.047Z,8.70
2022-09-04T20:12:37.254Z,6.03
2022-09-04T20:15:18.254Z,7.77
2022-09-04T20:18:09.858Z,8.83
2022-09-04T20:20:54.884Z,7.57
2022-09-04T20:23:35.156Z,9.10
2022-09-04T20:26:19.316Z,6.67
2022-09-04T20:29:14.122Z,12.40
2022-09-04T20:31:58.639Z,10.90
2022-09-04T20:34:40.736Z,11.40
2022-09-04T20:37:44.554Z,9.50
2022-09-04T20:40:28.283Z,7.57
2022-09-04T20:43:22.998Z,8.17
2022-09-04T20:48:59.588Z,12.07
2022-09-04T20:52:50.063Z,9.87
2022-09-04T20:52:56.056Z,8.83
2022-09-04T20:55:24.494Z,6.40
2022-09-04T21:03:11.773Z,7.20
2022-09-04T21:03:16.999Z,6.50
2022-09-04T21:04:42.009Z,7.93
2022-09-04T21:07:29.683Z,8.40
2022-09-04T21:10:15.404Z,7.50
2022-09-04T21:12:52.430Z,7.37
2022-09-04T21:15:54.822Z,7.37
2022-09-04T21:19:28.545Z,6.60
2022-09-04T21:22:33.257Z,9.43
2022-09-04T21:25:33.134Z,8.40
2022-09-04T21:28:50.205Z,7.80
2022-09-04T21:31:50.165Z,8.00
2022-09-04T21:34:55.015Z,9.27
2022-09-04T21:37:40.062Z,9.10
2022-09-04T21:40:50.921Z,6.93
2022-09-04T21:44:10.791Z,9.97
2022-09-04T21:47:17.207Z,9.83
2022-09-04T21:50:46.565Z,10.33
2022-09-04T21:53:56.078Z,7.13
2022-09-04T22:02:30.593Z,8.50
2022-09-04T22:02:35.690Z,6.77
2022-09-04T22:03:31.493Z,6.97
2022-09-04T22:06:58.787Z,7.97
2022-09-04T22:13:29.049Z,7.37
2022-09-04T22:13:43.729Z,8.27
2022-09-04T22:15:25.058Z,6.20
2022-09-04T22:18:44.749Z,6.97
2022-09-04T22:21:38.524Z,9.97
2022-09-04T22:24:58.087Z,8.13
2022-09-04T22:28:12.652Z,8.30
2022-09-04T22:31:13.291Z,7.93
2022-09-04T22:34:37.711Z,6.50
2022-09-04T22:37:52.110Z,6.53
2022-09-04T22:40:56.591Z,6.63
2022-09-04T22:43:29.632Z,8.90
2022-09-04T22:47:31.268Z,8.90
2022-09-04T22:50:49.945Z,6.90
2022-09-04T22:53:56.649Z,6.30
2022-09-04T22:56:49.095Z,6.70
2022-09-04T23:00:06.951Z,7.57
2022-09-04T23:03:32.781Z,10.17
2022-09-04T23:09:44.616Z,6.10
2022-09-04T23:13:51.399Z,6.83
2022-09-04T23:13:54.635Z,7.37
2022-09-04T23:17:00.147Z,5.90
2022-09-04T23:23:07.676Z,7.80
2022-09-04T23:26:45.333Z,7.50
2022-09-04T23:27:28.246Z,9.90
2022-09-04T23:30:26.971Z,12.00
2022-09-04T23:33:44.761Z,10.00
2022-09-04T23:36:43.415Z,7.33
2022-09-04T23:39:46.637Z,11.30
2022-09-04T23:42:47.334Z,8.03
2022-09-04T23:46:00.889Z,11.27
2022-09-04T23:49:06.674Z,6.60
2022-09-04T23:51:49.636Z,7.90
2022-09-04T23:55:10.346Z,6.57
2022-09-04T23:57:52.912Z,8.67
